Forreston, Illinois
Current Conditions -  °F | °C
As of 4:35 AM on Thursday 23 Oct 2014 (Local Time) from KFEP Reporting Station
Clear Clear  
Wind Chill: 30°   Ceiling: Unl
Heat Index: 36°   Visibility: 7mi
Dew Point: 33°   Wind: 7mph
Humidity: 90%   Direction: 140°SE
Pressure: 30.19"   Gusts: NA
Location:  42.13°N, 89.58°W
Report Text: KFEP 230935Z AUTO 14006KT 7SM CLR 02/01 A3019 RMK AO2 T00210006
Loading
Personal Weather Stations






























Interactive Weather Map
Tropical Storm Tracking
New forecast layout! Learn more

10-Day Weather Forecast

Advertisements
Track Severe Weather on mobile